createdAt,value
2022-09-28T00:00:50.402Z,0.00
2022-09-28T00:01:50.509Z,0.00
2022-09-28T00:02:50.509Z,0.00
2022-09-28T00:03:50.442Z,0.00
2022-09-28T00:04:50.452Z,0.00
2022-09-28T00:05:50.443Z,0.00
2022-09-28T00:06:50.443Z,0.00
2022-09-28T00:07:50.463Z,0.00
2022-09-28T00:08:50.462Z,0.00
2022-09-28T00:09:50.463Z,0.00
2022-09-28T00:10:50.461Z,0.00
2022-09-28T00:11:50.534Z,0.00
2022-09-28T00:12:50.534Z,0.00
2022-09-28T00:13:50.534Z,0.00
2022-09-28T00:14:50.532Z,0.00
2022-09-28T00:15:50.540Z,0.00
2022-09-28T00:16:50.586Z,0.00
2022-09-28T00:17:50.536Z,0.00
2022-09-28T00:18:50.559Z,0.00
2022-09-28T00:19:50.580Z,0.00
2022-09-28T00:20:50.588Z,0.00
2022-09-28T00:21:50.602Z,0.00
2022-09-28T00:22:50.603Z,0.00
2022-09-28T00:23:50.625Z,0.00
2022-09-28T00:24:50.640Z,0.00
2022-09-28T00:25:50.666Z,0.00
2022-09-28T00:26:50.661Z,0.00
2022-09-28T00:27:50.730Z,0.00
2022-09-28T00:28:50.758Z,0.00
2022-09-28T00:29:50.769Z,0.00
2022-09-28T00:30:50.779Z,0.00
2022-09-28T00:31:50.827Z,0.00
2022-09-28T00:32:50.859Z,0.00
2022-09-28T00:33:50.912Z,0.00
2022-09-28T00:34:50.910Z,0.00
2022-09-28T00:35:50.919Z,0.00
2022-09-28T00:36:50.931Z,0.00
2022-09-28T00:37:50.963Z,0.00
2022-09-28T00:38:50.978Z,0.00
2022-09-28T00:39:51.032Z,0.00
2022-09-28T00:40:51.131Z,0.00
2022-09-28T00:41:51.133Z,0.00
2022-09-28T00:42:51.172Z,0.00
2022-09-28T00:43:51.212Z,0.00
2022-09-28T00:44:51.239Z,0.00
2022-09-28T00:45:51.304Z,0.00
2022-09-28T00:46:51.266Z,0.00
2022-09-28T00:47:51.282Z,0.00
2022-09-28T00:48:51.294Z,0.00
2022-09-28T00:49:51.323Z,0.00
2022-09-28T00:50:51.340Z,0.00
2022-09-28T00:51:51.375Z,0.00
2022-09-28T00:52:51.392Z,0.00
2022-09-28T00:53:51.430Z,0.00
2022-09-28T00:54:51.469Z,0.00
2022-09-28T00:55:51.521Z,0.00
2022-09-28T01:02:35.484Z,0.00
2022-09-28T01:03:35.499Z,0.00
2022-09-28T01:04:37.155Z,0.00
2022-09-28T01:05:35.505Z,0.00
2022-09-28T01:06:35.515Z,0.00
2022-09-28T01:07:35.544Z,0.00
2022-09-28T01:08:35.551Z,0.00
2022-09-28T01:09:35.567Z,0.00
2022-09-28T01:10:35.679Z,0.00
2022-09-28T01:11:35.644Z,0.00
2022-09-28T01:12:35.665Z,0.00
2022-09-28T01:13:35.665Z,0.00
2022-09-28T01:14:35.677Z,0.00
2022-09-28T01:15:35.687Z,0.00
2022-09-28T01:16:35.741Z,0.00
2022-09-28T01:17:35.783Z,0.00
2022-09-28T01:18:35.841Z,0.00
2022-09-28T01:19:35.838Z,0.00
2022-09-28T01:20:35.851Z,0.00
2022-09-28T01:21:35.858Z,0.00
2022-09-28T01:22:35.899Z,0.00
2022-09-28T01:23:35.937Z,0.00
2022-09-28T01:24:36.049Z,0.00
2022-09-28T01:25:35.987Z,0.00
2022-09-28T01:26:35.989Z,0.00
2022-09-28T01:27:36.020Z,0.00
2022-09-28T01:28:36.071Z,0.00
2022-09-28T01:29:36.102Z,0.00
2022-09-28T01:30:36.131Z,0.00
2022-09-28T01:31:36.219Z,0.00
2022-09-28T01:32:36.144Z,0.00
2022-09-28T01:33:36.175Z,0.00
2022-09-28T01:34:36.206Z,0.00
2022-09-28T01:35:36.225Z,0.00
2022-09-28T01:36:36.250Z,0.00
2022-09-28T01:37:36.269Z,0.00
2022-09-28T01:38:36.281Z,0.00
2022-09-28T01:39:36.323Z,0.00
2022-09-28T01:40:36.379Z,0.00
2022-09-28T01:41:36.325Z,0.00
2022-09-28T01:42:36.333Z,0.00
2022-09-28T01:43:36.365Z,0.00
2022-09-28T01:44:36.394Z,0.00
2022-09-28T01:45:36.485Z,0.00
2022-09-28T01:46:36.416Z,0.00
2022-09-28T01:47:36.427Z,0.00
2022-09-28T01:48:36.464Z,0.00
2022-09-28T01:49:36.514Z,0.00
2022-09-28T01:50:36.553Z,0.00
2022-09-28T01:51:36.574Z,0.00
2022-09-28T01:52:36.589Z,0.00
2022-09-28T01:53:36.614Z,0.00
2022-09-28T01:54:36.634Z,0.00
2022-09-28T01:55:36.657Z,0.00
2022-09-28T01:56:36.667Z,0.00
2022-09-28T01:57:36.684Z,0.00
2022-09-28T01:58:36.702Z,0.00
2022-09-28T01:59:36.715Z,0.00
2022-09-28T02:00:36.760Z,0.00
2022-09-28T02:01:36.799Z,0.00
2022-09-28T02:02:36.839Z,0.00
2022-09-28T02:03:36.867Z,0.00
2022-09-28T02:04:36.888Z,0.00
2022-09-28T02:05:36.923Z,0.00
2022-09-28T02:06:36.939Z,0.00
2022-09-28T02:07:36.962Z,0.00
2022-09-28T02:08:36.999Z,0.00
2022-09-28T02:09:37.011Z,0.00
2022-09-28T02:10:37.029Z,0.00
2022-09-28T02:11:37.045Z,0.00
2022-09-28T02:12:37.052Z,0.00
2022-09-28T02:13:37.092Z,0.00
2022-09-28T02:14:37.109Z,0.00
2022-09-28T02:15:37.110Z,0.00
2022-09-28T02:16:37.166Z,0.00
2022-09-28T02:17:37.157Z,0.00
2022-09-28T02:18:37.171Z,0.00
2022-09-28T02:19:37.186Z,0.00
2022-09-28T02:20:37.195Z,0.00
2022-09-28T02:21:37.199Z,0.00
2022-09-28T02:22:37.224Z,0.00
2022-09-28T02:25:03.238Z,0.00
2022-09-28T02:27:29.227Z,0.00
2022-09-28T02:28:29.212Z,0.00
2022-09-28T02:29:29.212Z,0.00
2022-09-28T02:30:29.213Z,0.00
2022-09-28T02:31:29.314Z,0.00
2022-09-28T02:32:29.267Z,0.00
2022-09-28T02:33:29.279Z,0.00
2022-09-28T02:34:29.287Z,0.00
2022-09-28T02:35:29.295Z,0.00
2022-09-28T02:36:29.336Z,0.00
2022-09-28T02:37:29.375Z,0.00
2022-09-28T02:38:29.401Z,0.00
2022-09-28T02:39:29.477Z,0.00
2022-09-28T02:40:29.475Z,0.00
2022-09-28T02:41:29.469Z,0.00
2022-09-28T02:42:29.468Z,0.00
2022-09-28T02:43:29.481Z,0.00
2022-09-28T02:44:29.491Z,0.00
2022-09-28T02:45:29.572Z,0.00
2022-09-28T02:46:29.528Z,0.00
2022-09-28T02:47:29.537Z,0.00
2022-09-28T02:48:43.249Z,0.00
2022-09-28T02:49:29.613Z,0.00
2022-09-28T02:50:29.630Z,0.00
2022-09-28T02:51:29.665Z,0.00
2022-09-28T02:52:29.689Z,0.00
2022-09-28T02:53:29.710Z,0.00
2022-09-28T02:54:29.733Z,0.00
2022-09-28T02:55:29.752Z,0.00
2022-09-28T02:56:29.742Z,0.00
2022-09-28T02:57:29.808Z,0.00
2022-09-28T02:58:29.848Z,0.00
2022-09-28T02:59:29.898Z,0.00
2022-09-28T03:00:29.919Z,0.00
2022-09-28T03:01:29.944Z,0.00
2022-09-28T03:02:30.014Z,0.00
2022-09-28T03:03:30.018Z,0.00
2022-09-28T03:04:30.041Z,0.00
2022-09-28T03:05:30.053Z,0.00
2022-09-28T03:06:30.085Z,0.00
2022-09-28T03:07:30.086Z,0.00
2022-09-28T03:08:30.109Z,0.00
2022-09-28T03:09:30.114Z,0.00
2022-09-28T03:10:30.137Z,0.00
2022-09-28T03:11:30.175Z,0.00
2022-09-28T03:12:30.182Z,0.00
2022-09-28T03:13:30.201Z,0.00
2022-09-28T03:14:30.235Z,0.00
2022-09-28T03:15:30.261Z,0.00
2022-09-28T03:16:30.317Z,0.00
2022-09-28T03:17:30.309Z,0.00
2022-09-28T03:18:30.326Z,0.00
2022-09-28T03:19:30.354Z,0.00
2022-09-28T03:20:30.376Z,0.00
2022-09-28T03:21:30.387Z,0.00
2022-09-28T03:22:30.399Z,0.00
2022-09-28T03:23:30.421Z,0.00
2022-09-28T03:24:30.470Z,0.00
2022-09-28T03:25:30.485Z,0.00
2022-09-28T03:26:30.504Z,0.00
2022-09-28T03:27:30.521Z,0.00
2022-09-28T03:28:30.593Z,0.00
2022-09-28T03:29:30.555Z,0.00
2022-09-28T03:30:30.567Z,0.00
2022-09-28T03:31:30.632Z,0.00
2022-09-28T03:32:30.610Z,0.00
2022-09-28T03:33:30.628Z,0.00
2022-09-28T03:34:30.667Z,0.00
2022-09-28T03:35:30.676Z,0.00
2022-09-28T03:36:30.710Z,0.00
2022-09-28T03:37:30.717Z,0.00
2022-09-28T03:38:30.737Z,0.00
2022-09-28T03:39:30.755Z,0.00
2022-09-28T03:40:30.809Z,0.00
2022-09-28T03:41:30.850Z,0.00
2022-09-28T03:42:30.851Z,0.00
2022-09-28T03:43:30.857Z,0.00
2022-09-28T03:44:30.882Z,0.00
2022-09-28T03:45:30.965Z,0.00
2022-09-28T03:46:30.922Z,0.00
2022-09-28T03:47:30.949Z,0.00
2022-09-28T03:48:32.641Z,0.00
2022-09-28T03:49:30.967Z,0.00
2022-09-28T03:50:30.981Z,0.00
2022-09-28T03:51:31.004Z,0.00
2022-09-28T03:52:31.046Z,0.00
2022-09-28T03:53:31.053Z,0.00
2022-09-28T03:54:31.072Z,0.00
2022-09-28T03:55:31.080Z,0.00
2022-09-28T03:56:31.092Z,0.00
2022-09-28T03:57:31.114Z,0.00
2022-09-28T03:58:31.146Z,0.00
2022-09-28T03:59:31.153Z,0.00
2022-09-28T04:00:31.143Z,0.00
2022-09-28T04:01:31.279Z,0.00
2022-09-28T04:02:31.318Z,0.00
2022-09-28T04:03:31.264Z,0.00
2022-09-28T04:04:31.272Z,0.00
2022-09-28T04:05:31.283Z,0.00
2022-09-28T04:06:31.285Z,0.00
2022-09-28T04:07:31.430Z,0.00
2022-09-28T04:08:31.375Z,0.00
2022-09-28T04:09:31.396Z,0.00
2022-09-28T04:10:31.399Z,0.00
2022-09-28T04:11:47.590Z,0.00
2022-09-28T04:12:31.416Z,0.00
2022-09-28T04:13:31.436Z,0.00
2022-09-28T04:14:31.445Z,0.00
2022-09-28T04:15:31.467Z,0.00
2022-09-28T04:16:31.549Z,0.00
2022-09-28T04:17:31.485Z,0.00
2022-09-28T04:18:31.529Z,0.00
2022-09-28T04:19:31.545Z,0.00
2022-09-28T04:20:31.588Z,0.00
2022-09-28T04:21:31.600Z,0.00
2022-09-28T04:22:31.614Z,0.00
2022-09-28T04:23:31.618Z,0.00
2022-09-28T04:24:31.618Z,0.00
2022-09-28T04:25:31.658Z,0.00
2022-09-28T04:26:31.671Z,0.00
2022-09-28T04:27:31.672Z,0.00
2022-09-28T04:28:31.685Z,0.00
2022-09-28T04:29:31.695Z,0.00
2022-09-28T04:30:31.727Z,0.00
2022-09-28T04:31:31.804Z,0.00
2022-09-28T04:32:31.782Z,0.00
2022-09-28T04:33:31.800Z,0.00
2022-09-28T04:34:35.740Z,0.00
2022-09-28T04:35:31.838Z,0.00
2022-09-28T04:36:31.812Z,0.00
2022-09-28T04:37:31.848Z,0.00
2022-09-28T04:38:51.773Z,0.00
2022-09-28T04:39:31.862Z,0.00
2022-09-28T04:40:31.916Z,0.00
2022-09-28T04:41:31.873Z,0.00
2022-09-28T04:42:31.906Z,0.00
2022-09-28T04:43:31.924Z,0.00
2022-09-28T04:44:31.934Z,0.00
2022-09-28T04:45:31.991Z,0.00
2022-09-28T04:46:32.008Z,0.00
2022-09-28T04:47:32.073Z,0.00
2022-09-28T04:48:32.094Z,0.00
2022-09-28T04:49:32.216Z,0.00
2022-09-28T04:50:32.156Z,0.00
2022-09-28T04:51:32.175Z,0.00
2022-09-28T04:52:32.194Z,0.00
2022-09-28T04:53:32.227Z,0.00
2022-09-28T04:54:32.237Z,0.00
2022-09-28T04:55:32.247Z,4.00
2022-09-28T04:56:32.254Z,4.00
2022-09-28T04:57:32.288Z,0.00
2022-09-28T04:58:32.314Z,0.00
2022-09-28T04:59:32.335Z,4.00
2022-09-28T05:00:32.343Z,4.00
2022-09-28T05:01:32.440Z,4.00
2022-09-28T05:02:32.465Z,4.00
2022-09-28T05:03:32.468Z,4.00
2022-09-28T05:04:32.589Z,8.00
2022-09-28T05:05:32.553Z,8.00
2022-09-28T05:06:32.599Z,12.00
2022-09-28T05:07:32.656Z,16.00
2022-09-28T05:08:32.716Z,20.00
2022-09-28T05:09:36.316Z,20.00
2022-09-28T05:10:32.818Z,24.00
2022-09-28T05:11:32.851Z,32.00
2022-09-28T05:12:32.892Z,28.00
2022-09-28T05:13:32.939Z,36.00
2022-09-28T05:14:32.971Z,40.00
2022-09-28T05:15:33.050Z,40.00
2022-09-28T05:16:33.073Z,48.00
2022-09-28T05:17:33.022Z,48.00
2022-09-28T05:18:33.060Z,52.00
2022-09-28T05:19:33.111Z,60.00
2022-09-28T05:20:33.173Z,72.00
2022-09-28T05:21:33.401Z,72.00
2022-09-28T05:22:33.277Z,80.00
2022-09-28T05:23:34.598Z,72.00
2022-09-28T05:24:33.342Z,72.00
2022-09-28T05:25:34.233Z,60.00
2022-09-28T05:26:33.422Z,76.00
2022-09-28T05:27:33.480Z,92.00
2022-09-28T05:28:33.520Z,104.00
2022-09-28T05:29:33.580Z,96.00
2022-09-28T05:30:33.591Z,96.00
2022-09-28T05:31:33.608Z,96.00
2022-09-28T05:32:33.583Z,108.00
2022-09-28T05:33:33.651Z,112.00
2022-09-28T05:34:33.971Z,112.00
2022-09-28T05:35:33.676Z,116.00
2022-09-28T05:36:33.709Z,156.00
2022-09-28T05:37:33.771Z,172.00
2022-09-28T05:38:33.797Z,172.00
2022-09-28T05:39:33.867Z,192.00
2022-09-28T05:40:33.909Z,196.00
2022-09-28T05:41:33.892Z,192.00
2022-09-28T05:42:33.919Z,188.00
2022-09-28T05:43:33.958Z,184.00
2022-09-28T05:44:33.983Z,204.00
2022-09-28T05:45:34.077Z,212.00
2022-09-28T05:46:34.009Z,236.00
2022-09-28T05:47:34.055Z,264.00
2022-09-28T05:48:34.039Z,280.00
2022-09-28T05:49:34.068Z,324.00
2022-09-28T05:50:34.114Z,336.00
2022-09-28T05:51:34.160Z,340.00
2022-09-28T05:52:34.136Z,380.00
2022-09-28T05:53:34.217Z,356.00
2022-09-28T05:54:34.258Z,344.00
2022-09-28T05:55:34.347Z,328.00
2022-09-28T05:56:34.299Z,296.00
2022-09-28T05:57:34.349Z,308.00
2022-09-28T05:58:34.378Z,312.00
2022-09-28T05:59:34.425Z,316.00
2022-09-28T06:00:34.462Z,300.00
2022-09-28T06:01:34.617Z,328.00
2022-09-28T06:02:34.556Z,340.00
2022-09-28T06:03:34.560Z,392.00
2022-09-28T06:04:34.610Z,360.00
2022-09-28T06:05:34.656Z,372.00
2022-09-28T06:06:34.661Z,348.00
2022-09-28T06:07:34.730Z,364.00
2022-09-28T06:08:34.792Z,404.00
2022-09-28T06:09:34.787Z,452.00
2022-09-28T06:10:34.820Z,572.00
2022-09-28T06:11:34.852Z,688.00
2022-09-28T06:12:34.860Z,796.00
2022-09-28T06:13:34.939Z,972.00
2022-09-28T06:14:34.956Z,1020.00
2022-09-28T06:15:34.991Z,1164.00
2022-09-28T06:16:35.163Z,1360.00
2022-09-28T06:17:35.023Z,1388.00
2022-09-28T06:18:35.044Z,1484.00
2022-09-28T06:19:35.107Z,1720.00
2022-09-28T06:20:35.094Z,1784.00
2022-09-28T06:21:35.073Z,1888.00
2022-09-28T06:22:35.094Z,1836.00
2022-09-28T06:23:35.114Z,1756.00
2022-09-28T06:24:35.265Z,1808.00
2022-09-28T06:25:35.225Z,1776.00
2022-09-28T06:26:35.248Z,1804.00
2022-09-28T06:27:35.265Z,1808.00
2022-09-28T06:28:35.285Z,1832.00
2022-09-28T06:29:35.294Z,1916.00
2022-09-28T06:30:35.315Z,1944.00
2022-09-28T06:31:35.347Z,1884.00
2022-09-28T06:32:35.379Z,1808.00
2022-09-28T06:33:35.357Z,1736.00
2022-09-28T06:34:35.376Z,1676.00
2022-09-28T06:35:35.444Z,1452.00
2022-09-28T06:36:35.441Z,1344.00
2022-09-28T06:37:35.529Z,1420.00
2022-09-28T06:38:35.493Z,1412.00
2022-09-28T06:39:35.527Z,1392.00
2022-09-28T06:46:19.688Z,1508.00
2022-09-28T06:47:19.703Z,1508.00
2022-09-28T06:48:19.685Z,1660.00
2022-09-28T06:49:19.822Z,1860.00
2022-09-28T06:50:19.815Z,1908.00
2022-09-28T06:51:19.873Z,2164.00
2022-09-28T06:52:19.873Z,2396.00
2022-09-28T06:53:19.845Z,2692.00
2022-09-28T06:54:19.875Z,3056.00
2022-09-28T06:55:19.906Z,3124.00
2022-09-28T06:56:19.982Z,3228.00
2022-09-28T06:57:20.007Z,3212.00
2022-09-28T06:58:20.031Z,3280.00
2022-09-28T06:59:20.056Z,3672.00
2022-09-28T07:00:20.065Z,3672.00
2022-09-28T07:01:20.133Z,3924.00
2022-09-28T07:02:20.200Z,3784.00
2022-09-28T07:03:20.182Z,3772.00
2022-09-28T07:04:20.198Z,3572.00
2022-09-28T07:05:20.265Z,3268.00
2022-09-28T07:06:20.308Z,3092.00
2022-09-28T07:07:20.361Z,3044.00
2022-09-28T07:08:20.389Z,3116.00
2022-09-28T07:09:31.260Z,3344.00
2022-09-28T07:10:20.458Z,3108.00
2022-09-28T07:11:20.497Z,2592.00
2022-09-28T07:12:20.471Z,2752.00
2022-09-28T07:13:46.081Z,2856.00
2022-09-28T07:14:35.313Z,3316.00
2022-09-28T07:15:20.579Z,3912.00
2022-09-28T07:16:25.699Z,4020.00
2022-09-28T07:17:20.715Z,4316.00
2022-09-28T07:18:20.756Z,4300.00
2022-09-28T07:19:20.724Z,3928.00
2022-09-28T07:20:20.791Z,3880.00
2022-09-28T07:21:29.265Z,4068.00
2022-09-28T07:22:31.688Z,3928.00
2022-09-28T07:23:20.915Z,4416.00
2022-09-28T07:24:20.949Z,4652.00
2022-09-28T07:25:20.962Z,5148.00
2022-09-28T07:26:24.051Z,5640.00
2022-09-28T07:27:23.430Z,6752.00
2022-09-28T07:28:21.083Z,7460.00
2022-09-28T07:29:21.094Z,7596.00
2022-09-28T07:30:21.215Z,7916.00
2022-09-28T07:31:21.284Z,9076.00
2022-09-28T07:32:21.235Z,9500.00
2022-09-28T07:33:21.279Z,9628.00
2022-09-28T07:34:21.314Z,8264.00
2022-09-28T07:35:21.325Z,8032.00
2022-09-28T07:36:21.395Z,7824.00
2022-09-28T07:37:21.377Z,7152.00
2022-09-28T07:38:21.396Z,7348.00
2022-09-28T07:39:21.437Z,7628.00
2022-09-28T07:40:21.499Z,7112.00
2022-09-28T07:41:21.552Z,6164.00
2022-09-28T07:42:21.586Z,5492.00
2022-09-28T07:43:21.617Z,5280.00
2022-09-28T07:44:21.657Z,4396.00
2022-09-28T07:45:21.687Z,3860.00
2022-09-28T07:46:21.762Z,3952.00
2022-09-28T07:47:21.720Z,4132.00
2022-09-28T07:48:21.783Z,4128.00
2022-09-28T07:49:21.819Z,4404.00
2022-09-28T07:50:21.848Z,4024.00
2022-09-28T07:51:21.901Z,3560.00
2022-09-28T07:52:21.899Z,3168.00
2022-09-28T07:53:21.945Z,3320.00
2022-09-28T07:54:21.969Z,3724.00
2022-09-28T07:55:22.002Z,4180.00
2022-09-28T07:56:22.044Z,4652.00
2022-09-28T07:57:22.081Z,5016.00
2022-09-28T07:58:22.050Z,5308.00
2022-09-28T07:59:22.075Z,5272.00
2022-09-28T08:00:22.100Z,5352.00
2022-09-28T08:01:22.164Z,5276.00
2022-09-28T08:02:22.254Z,5556.00
2022-09-28T08:03:22.227Z,6204.00
2022-09-28T08:04:22.267Z,6832.00
2022-09-28T08:05:22.293Z,7200.00
2022-09-28T08:06:22.339Z,7952.00
2022-09-28T08:07:23.999Z,8432.00
2022-09-28T08:08:22.435Z,8836.00
2022-09-28T08:09:22.481Z,8772.00
2022-09-28T08:10:22.504Z,7952.00
2022-09-28T08:11:22.574Z,6876.00
2022-09-28T08:12:22.585Z,6020.00
2022-09-28T08:13:26.694Z,5240.00
2022-09-28T08:14:22.624Z,4588.00
2022-09-28T08:15:22.714Z,4056.00
2022-09-28T08:16:22.790Z,3544.00
2022-09-28T08:17:22.758Z,3132.00
2022-09-28T08:18:22.829Z,3068.00
2022-09-28T08:19:22.886Z,2956.00
2022-09-28T08:20:22.961Z,2648.00
2022-09-28T08:21:22.916Z,3080.00
2022-09-28T08:22:22.961Z,3668.00
2022-09-28T08:23:22.976Z,3956.00
2022-09-28T08:24:23.077Z,3868.00
2022-09-28T08:25:23.008Z,3700.00
2022-09-28T08:26:23.050Z,3440.00
2022-09-28T08:27:23.129Z,3312.00
2022-09-28T08:28:23.159Z,3016.00
2022-09-28T08:29:23.169Z,2944.00
2022-09-28T08:30:23.472Z,3032.00
2022-09-28T08:31:23.279Z,3264.00
2022-09-28T08:32:23.243Z,3336.00
2022-09-28T08:33:23.287Z,3428.00
2022-09-28T08:34:23.259Z,3380.00
2022-09-28T08:35:23.324Z,3476.00
2022-09-28T08:36:23.302Z,3636.00
2022-09-28T08:37:23.313Z,4184.00
2022-09-28T08:38:23.340Z,4428.00
2022-09-28T08:39:23.325Z,4348.00
2022-09-28T08:40:23.496Z,4820.00
2022-09-28T08:41:23.491Z,5416.00
2022-09-28T08:42:23.472Z,5492.00
2022-09-28T08:43:23.482Z,5336.00
2022-09-28T08:44:23.518Z,5624.00
2022-09-28T08:45:23.592Z,6056.00
2022-09-28T08:46:26.404Z,5912.00
2022-09-28T08:47:23.651Z,5320.00
2022-09-28T08:48:23.685Z,4884.00
2022-09-28T08:49:25.995Z,4840.00
2022-09-28T08:50:23.694Z,5036.00
2022-09-28T08:51:23.692Z,5220.00
2022-09-28T08:52:23.752Z,5660.00
2022-09-28T08:53:23.757Z,5900.00
2022-09-28T08:54:23.783Z,5988.00
2022-09-28T08:55:23.970Z,6072.00
2022-09-28T08:56:23.895Z,5856.00
2022-09-28T08:57:23.930Z,5928.00
2022-09-28T08:58:23.924Z,6640.00
2022-09-28T08:59:23.955Z,7028.00
2022-09-28T09:00:23.957Z,7556.00
2022-09-28T09:01:24.031Z,8044.00
2022-09-28T09:02:24.141Z,7596.00
2022-09-28T09:03:24.078Z,6888.00
2022-09-28T09:04:24.119Z,6656.00
2022-09-28T09:05:24.130Z,6180.00
2022-09-28T09:06:24.138Z,5640.00
2022-09-28T09:07:24.190Z,5280.00
2022-09-28T09:08:24.199Z,4924.00
2022-09-28T09:09:24.230Z,5028.00
2022-09-28T09:10:24.301Z,5364.00
2022-09-28T09:11:24.340Z,5364.00
2022-09-28T09:12:24.371Z,5240.00
2022-09-28T09:13:24.415Z,5224.00
2022-09-28T09:14:24.392Z,5036.00
2022-09-28T09:15:24.431Z,4824.00
2022-09-28T09:16:24.453Z,4236.00
2022-09-28T09:17:24.447Z,4048.00
2022-09-28T09:18:24.514Z,3644.00
2022-09-28T09:19:24.536Z,3352.00
2022-09-28T09:20:24.600Z,3080.00
2022-09-28T09:21:24.626Z,3040.00
2022-09-28T09:22:24.685Z,2832.00
2022-09-28T09:23:24.673Z,2648.00
2022-09-28T09:24:24.744Z,2356.00
2022-09-28T09:25:24.749Z,1968.00
2022-09-28T09:26:26.234Z,1600.00
2022-09-28T09:27:24.765Z,1164.00
2022-09-28T09:28:24.764Z,936.00
2022-09-28T09:29:24.794Z,804.00
2022-09-28T09:30:27.381Z,744.00
2022-09-28T09:31:24.910Z,700.00
2022-09-28T09:32:24.926Z,720.00
2022-09-28T09:33:24.969Z,712.00
2022-09-28T09:34:24.977Z,680.00
2022-09-28T09:35:29.328Z,668.00
2022-09-28T09:36:25.105Z,672.00
2022-09-28T09:37:25.192Z,700.00
2022-09-28T09:38:25.217Z,744.00
2022-09-28T09:39:25.194Z,752.00
2022-09-28T09:40:25.350Z,756.00
2022-09-28T09:41:25.329Z,812.00
2022-09-28T09:42:25.406Z,784.00
2022-09-28T09:43:28.049Z,800.00
2022-09-28T09:44:25.415Z,868.00
2022-09-28T09:45:25.459Z,1032.00
2022-09-28T09:46:25.503Z,1140.00
2022-09-28T09:47:25.528Z,1172.00
2022-09-28T09:48:25.501Z,1284.00
2022-09-28T09:49:25.506Z,1348.00
2022-09-28T09:50:25.509Z,1448.00
2022-09-28T09:51:25.569Z,1556.00
2022-09-28T09:52:25.628Z,1632.00
2022-09-28T09:53:25.629Z,1820.00
2022-09-28T09:54:25.650Z,2008.00
2022-09-28T09:55:29.945Z,2104.00
2022-09-28T09:56:25.702Z,2100.00
2022-09-28T09:57:25.763Z,2204.00
2022-09-28T09:58:25.791Z,2192.00
2022-09-28T09:59:25.855Z,2340.00
2022-09-28T10:00:25.901Z,2692.00
2022-09-28T10:01:25.949Z,2792.00
2022-09-28T10:02:25.986Z,2664.00
2022-09-28T10:03:26.012Z,2716.00
2022-09-28T10:04:26.157Z,2700.00
2022-09-28T10:05:26.023Z,2612.00
2022-09-28T10:06:26.080Z,2468.00
2022-09-28T10:07:26.142Z,2340.00
2022-09-28T10:08:26.151Z,2184.00
2022-09-28T10:09:26.215Z,2156.00
2022-09-28T10:10:26.343Z,2008.00
2022-09-28T10:11:26.314Z,2208.00
2022-09-28T10:12:26.404Z,2144.00
2022-09-28T10:13:26.405Z,2084.00
2022-09-28T10:14:26.468Z,1924.00
2022-09-28T10:15:26.414Z,1824.00
2022-09-28T10:16:26.410Z,1796.00
2022-09-28T10:17:26.395Z,1808.00
2022-09-28T10:18:26.445Z,1984.00
2022-09-28T10:19:26.458Z,2016.00
2022-09-28T10:20:26.546Z,2060.00
2022-09-28T10:21:26.546Z,2280.00
2022-09-28T10:22:26.538Z,2388.00
2022-09-28T10:23:26.597Z,2516.00
2022-09-28T10:24:26.637Z,2448.00
2022-09-28T10:25:26.721Z,2532.00
2022-09-28T10:26:26.701Z,2688.00
2022-09-28T10:27:26.707Z,2736.00
2022-09-28T10:28:27.449Z,2636.00
2022-09-28T10:29:26.779Z,2984.00
2022-09-28T10:30:26.819Z,3024.00
2022-09-28T10:31:26.878Z,2896.00
2022-09-28T10:32:26.918Z,3048.00
2022-09-28T10:33:26.950Z,3264.00
2022-09-28T10:34:27.010Z,3264.00
2022-09-28T10:35:27.103Z,3368.00
2022-09-28T10:36:27.061Z,3592.00
2022-09-28T10:37:27.094Z,3596.00
2022-09-28T10:38:27.155Z,3688.00
2022-09-28T10:39:27.166Z,3972.00
2022-09-28T10:40:27.368Z,4164.00
2022-09-28T10:41:27.265Z,4196.00
2022-09-28T10:42:27.262Z,4288.00
2022-09-28T10:43:27.330Z,4748.00
2022-09-28T10:44:27.351Z,4880.00
2022-09-28T10:45:27.392Z,5024.00
2022-09-28T10:46:27.494Z,4976.00
2022-09-28T10:47:27.474Z,5176.00
2022-09-28T10:48:27.414Z,5348.00
2022-09-28T10:49:27.424Z,5760.00
2022-09-28T10:50:27.453Z,5824.00
2022-09-28T10:51:27.501Z,6004.00
2022-09-28T10:52:27.529Z,6456.00
2022-09-28T10:53:27.525Z,6552.00
2022-09-28T10:54:27.555Z,6800.00
2022-09-28T10:55:27.575Z,7004.00
2022-09-28T10:56:27.594Z,7088.00
2022-09-28T10:57:27.628Z,7440.00
2022-09-28T10:58:27.646Z,7676.00
2022-09-28T10:59:27.679Z,7840.00
2022-09-28T11:00:27.697Z,8124.00
2022-09-28T11:01:27.807Z,8396.00
2022-09-28T11:02:30.297Z,8412.00
2022-09-28T11:03:27.727Z,8932.00
2022-09-28T11:04:27.770Z,9180.00
2022-09-28T11:05:27.815Z,9412.00
2022-09-28T11:06:27.837Z,9576.00
2022-09-28T11:07:27.857Z,10304.00
2022-09-28T11:08:27.880Z,10288.00
2022-09-28T11:09:30.557Z,10476.00
2022-09-28T11:10:27.913Z,10468.00
2022-09-28T11:11:27.960Z,10396.00
2022-09-28T11:12:27.950Z,10064.00
2022-09-28T11:13:27.980Z,9832.00
2022-09-28T11:14:28.841Z,9640.00
2022-09-28T11:15:28.030Z,9280.00
2022-09-28T11:16:28.027Z,8688.00
2022-09-28T11:17:28.041Z,7928.00
2022-09-28T11:18:28.022Z,7480.00
2022-09-28T11:19:28.103Z,7196.00
2022-09-28T11:20:28.736Z,6560.00
2022-09-28T11:21:28.155Z,6416.00
2022-09-28T11:22:28.171Z,6044.00
2022-09-28T11:23:28.202Z,6008.00
2022-09-28T11:24:28.263Z,5932.00
2022-09-28T11:25:28.258Z,6004.00
2022-09-28T11:26:28.233Z,6152.00
2022-09-28T11:27:28.256Z,6488.00
2022-09-28T11:28:28.253Z,6724.00
2022-09-28T11:29:28.292Z,6908.00
2022-09-28T11:30:28.359Z,7108.00
2022-09-28T11:31:28.374Z,7216.00
2022-09-28T11:32:29.075Z,7248.00
2022-09-28T11:33:29.373Z,7352.00
2022-09-28T11:34:41.836Z,7296.00
2022-09-28T11:35:28.476Z,7456.00
2022-09-28T11:36:28.556Z,7312.00
2022-09-28T11:37:28.595Z,7452.00
2022-09-28T11:38:28.846Z,7836.00
2022-09-28T11:39:28.726Z,7864.00
2022-09-28T11:40:28.851Z,8092.00
2022-09-28T11:41:29.679Z,8148.00
2022-09-28T11:42:28.878Z,8088.00
2022-09-28T11:43:28.948Z,8044.00
2022-09-28T11:44:32.555Z,8396.00
2022-09-28T11:45:28.879Z,8380.00
2022-09-28T11:46:29.184Z,8460.00
2022-09-28T11:47:29.027Z,8484.00
2022-09-28T11:48:29.026Z,8996.00
2022-09-28T11:49:29.012Z,9452.00
2022-09-28T11:50:29.001Z,9608.00
2022-09-28T11:51:29.736Z,9932.00
2022-09-28T11:52:29.161Z,10156.00
2022-09-28T11:53:29.209Z,10012.00
2022-09-28T11:54:30.106Z,9884.00
2022-09-28T11:55:30.052Z,9680.00
2022-09-28T11:56:30.185Z,9640.00
2022-09-28T11:57:29.442Z,9144.00
2022-09-28T11:58:29.446Z,9056.00
2022-09-28T11:59:29.432Z,8836.00
2022-09-28T12:00:29.504Z,8488.00
2022-09-28T12:01:29.757Z,7968.00
2022-09-28T12:02:29.706Z,7592.00
2022-09-28T12:03:29.813Z,7416.00
2022-09-28T12:04:29.621Z,7200.00
2022-09-28T12:05:29.644Z,7188.00
2022-09-28T12:06:29.626Z,7412.00
2022-09-28T12:07:29.743Z,7792.00
2022-09-28T12:08:29.694Z,7924.00
2022-09-28T12:09:29.752Z,8016.00
2022-09-28T12:10:29.860Z,8396.00
2022-09-28T12:11:29.951Z,8716.00
2022-09-28T12:12:29.886Z,8660.00
2022-09-28T12:13:29.882Z,9084.00
2022-09-28T12:14:30.024Z,9208.00
2022-09-28T12:15:42.271Z,9856.00
2022-09-28T12:17:00.858Z,9948.00
2022-09-28T12:17:30.118Z,10108.00
2022-09-28T12:18:30.027Z,10188.00
2022-09-28T12:19:30.048Z,10036.00
2022-09-28T12:20:30.035Z,10124.00
2022-09-28T12:21:30.922Z,10136.00
2022-09-28T12:22:30.195Z,10000.00
2022-09-28T12:23:30.118Z,9972.00
2022-09-28T12:24:30.848Z,10024.00
2022-09-28T12:25:31.533Z,10632.00
2022-09-28T12:26:32.549Z,11496.00
2022-09-28T12:27:31.593Z,11176.00
2022-09-28T12:28:30.283Z,10536.00
2022-09-28T12:29:30.329Z,10324.00
2022-09-28T12:30:30.451Z,10020.00
2022-09-28T12:31:30.422Z,9900.00
2022-09-28T12:32:30.413Z,9484.00
2022-09-28T12:33:30.483Z,8972.00
2022-09-28T12:34:30.523Z,9144.00
2022-09-28T12:35:30.512Z,9472.00
2022-09-28T12:36:30.509Z,9768.00
2022-09-28T12:37:31.443Z,10000.00
2022-09-28T12:38:30.554Z,10280.00
2022-09-28T12:39:46.978Z,10756.00
2022-09-28T12:40:30.657Z,10800.00
2022-09-28T12:41:30.635Z,10552.00
2022-09-28T12:42:30.685Z,10536.00
2022-09-28T12:43:30.830Z,10468.00
2022-09-28T12:44:30.712Z,10220.00
2022-09-28T12:45:38.460Z,10044.00
2022-09-28T12:46:30.840Z,9872.00
2022-09-28T12:47:30.787Z,9576.00
2022-09-28T12:48:30.807Z,9580.00
2022-09-28T12:50:38.542Z,9584.00
2022-09-28T12:51:30.996Z,9640.00